createdAt,value
2018-12-03T00:02:18.342Z,15.53
2018-12-03T00:06:27.812Z,15.67
2018-12-03T00:10:40.294Z,15.93
2018-12-03T00:14:51.215Z,15.80
2018-12-03T00:19:01.861Z,15.53
2018-12-03T00:23:12.337Z,15.13
2018-12-03T00:27:24.187Z,13.30
2018-12-03T00:31:40.679Z,11.40
2018-12-03T00:35:54.286Z,11.20
2018-12-03T00:40:11.933Z,9.10
2018-12-03T00:44:25.798Z,8.23
2018-12-03T00:48:45.108Z,8.47
2018-12-03T00:53:00.263Z,9.00
2018-12-03T00:57:18.564Z,10.57
2018-12-03T01:01:39.701Z,8.77
2018-12-03T01:05:55.249Z,7.40
2018-12-03T01:10:06.229Z,5.73
2018-12-03T01:14:19.107Z,6.63
2018-12-03T01:18:33.894Z,5.17
2018-12-03T01:22:48.336Z,5.03
2018-12-03T01:27:03.911Z,5.50
2018-12-03T01:31:20.497Z,6.87
2018-12-03T01:35:32.189Z,6.00
2018-12-03T01:39:45.862Z,6.17
2018-12-03T01:43:59.236Z,5.77
2018-12-03T01:48:12.124Z,5.47
2018-12-03T01:52:24.904Z,6.15
2018-12-03T01:56:34.381Z,7.23
2018-12-03T02:00:45.371Z,8.70
2018-12-03T02:04:56.181Z,9.37
2018-12-03T02:09:08.683Z,10.20
2018-12-03T02:13:21.289Z,11.95
2018-12-03T02:17:30.333Z,13.90
2018-12-03T02:21:37.475Z,14.90
2018-12-03T02:25:47.559Z,15.73
2018-12-03T02:29:58.415Z,15.90
2018-12-03T02:34:19.146Z,16.90
2018-12-03T02:38:35.492Z,18.90
2018-12-03T02:42:52.815Z,15.33
2018-12-03T02:47:08.141Z,12.40
2018-12-03T02:51:19.926Z,9.70
2018-12-03T02:55:29.170Z,10.30
2018-12-03T02:59:40.936Z,8.27
2018-12-03T03:03:51.836Z,6.90
2018-12-03T03:08:01.901Z,7.80
2018-12-03T03:12:15.749Z,5.97
2018-12-03T03:16:24.964Z,7.42
2018-12-03T03:20:38.779Z,7.40
2018-12-03T03:24:49.744Z,7.73
2018-12-03T03:29:02.246Z,7.70
2018-12-03T03:33:14.652Z,8.03
2018-12-03T03:37:30.658Z,7.70
2018-12-03T03:41:41.581Z,6.73
2018-12-03T03:45:50.776Z,5.73
2018-12-03T03:50:01.637Z,5.70
2018-12-03T03:54:11.850Z,5.27
2018-12-03T03:58:26.114Z,5.80
2018-12-03T04:02:38.696Z,4.10
2018-12-03T04:06:50.307Z,4.30
2018-12-03T04:11:01.477Z,3.73
2018-12-03T04:15:14.565Z,3.80
2018-12-03T04:19:29.322Z,3.47
2018-12-03T04:23:44.484Z,3.43
2018-12-03T04:27:57.022Z,3.50
2018-12-03T04:32:06.669Z,4.27
2018-12-03T04:36:16.529Z,3.47
2018-12-03T04:40:34.473Z,3.10
2018-12-03T04:44:43.558Z,3.30
2018-12-03T04:48:50.005Z,3.03
2018-12-03T04:53:02.700Z,2.97
2018-12-03T04:57:12.708Z,2.60
2018-12-03T05:01:24.009Z,3.55
2018-12-03T05:05:35.781Z,3.40
2018-12-03T05:09:47.492Z,3.70
2018-12-03T05:14:04.855Z,3.17
2018-12-03T05:18:16.055Z,4.43
2018-12-03T05:22:30.447Z,3.98
2018-12-03T05:26:44.996Z,3.73
2018-12-03T05:31:07.590Z,4.10
2018-12-03T05:35:27.228Z,2.75
2018-12-03T05:39:40.891Z,4.20
2018-12-03T05:43:54.376Z,3.10
2018-12-03T05:48:12.202Z,3.70
2018-12-03T05:52:31.588Z,3.95
2018-12-03T05:56:45.254Z,4.43
2018-12-03T06:00:56.220Z,4.27
2018-12-03T06:05:08.526Z,4.37
2018-12-03T06:09:23.849Z,4.97
2018-12-03T06:13:36.211Z,5.90
2018-12-03T06:17:46.057Z,5.23
2018-12-03T06:22:04.245Z,4.20
2018-12-03T06:26:18.977Z,5.20
2018-12-03T06:30:31.718Z,5.30
2018-12-03T06:34:42.536Z,5.60
2018-12-03T06:38:54.256Z,5.30
2018-12-03T06:43:10.631Z,5.87
2018-12-03T06:47:25.351Z,5.87
2018-12-03T06:51:50.512Z,5.97
2018-12-03T06:56:02.347Z,5.97
2018-12-03T07:00:24.901Z,6.30
2018-12-03T07:04:36.643Z,5.07
2018-12-03T07:08:52.815Z,5.17
2018-12-03T07:13:16.219Z,5.40
2018-12-03T07:17:25.480Z,5.40
2018-12-03T07:21:38.667Z,6.07
2018-12-03T07:25:46.336Z,6.33
2018-12-03T07:30:02.886Z,5.50
2018-12-03T07:34:17.325Z,6.10
2018-12-03T07:38:29.931Z,6.70
2018-12-03T07:42:43.498Z,6.57
2018-12-03T07:46:56.142Z,6.53
2018-12-03T07:51:09.603Z,6.77
2018-12-03T07:55:28.401Z,6.70
2018-12-03T07:59:47.340Z,8.50
2018-12-03T08:03:57.129Z,6.70
2018-12-03T08:08:09.705Z,7.67
2018-12-03T08:12:21.418Z,7.40
2018-12-03T08:16:32.179Z,6.93
2018-12-03T08:20:51.563Z,7.45
2018-12-03T08:25:04.746Z,7.07
2018-12-03T08:29:16.360Z,6.77
2018-12-03T08:33:30.727Z,6.78
2018-12-03T08:37:49.582Z,7.17
2018-12-03T08:42:06.722Z,7.20
2018-12-03T08:46:13.659Z,7.57
2018-12-03T08:50:29.352Z,7.75
2018-12-03T08:54:38.534Z,6.70
2018-12-03T08:58:51.447Z,7.80
2018-12-03T09:03:22.724Z,7.07
2018-12-03T09:07:38.761Z,8.93
2018-12-03T09:11:54.726Z,7.10
2018-12-03T09:16:06.615Z,7.43
2018-12-03T09:20:20.949Z,9.60
2018-12-03T09:24:32.841Z,7.73
2018-12-03T09:28:47.476Z,8.33
2018-12-03T09:33:00.962Z,7.53
2018-12-03T09:37:14.523Z,7.70
2018-12-03T09:41:27.113Z,7.10
2018-12-03T09:45:38.694Z,6.93
2018-12-03T09:49:52.133Z,5.90
2018-12-03T09:54:03.684Z,7.83
2018-12-03T09:58:44.075Z,6.17
2018-12-03T10:02:54.123Z,6.00
2018-12-03T10:07:10.439Z,6.15
2018-12-03T10:11:26.707Z,5.45
2018-12-03T10:15:42.086Z,6.05
2018-12-03T10:19:58.436Z,5.30
2018-12-03T10:24:16.046Z,6.43
2018-12-03T10:28:29.667Z,6.60
2018-12-03T10:32:39.431Z,6.60
2018-12-03T10:37:00.650Z,5.72
2018-12-03T10:41:33.896Z,6.47
2018-12-03T10:45:45.670Z,6.85
2018-12-03T10:50:00.114Z,5.93
2018-12-03T10:54:16.035Z,7.00
2018-12-03T10:58:32.426Z,7.30
2018-12-03T11:02:58.142Z,7.20
2018-12-03T11:07:05.505Z,6.50
2018-12-03T11:11:20.111Z,6.33
2018-12-03T11:15:27.371Z,7.40
2018-12-03T11:19:44.516Z,6.37
2018-12-03T11:23:55.787Z,7.70
2018-12-03T11:28:09.098Z,6.53
2018-12-03T11:32:23.836Z,7.08
2018-12-03T11:37:00.210Z,7.57
2018-12-03T11:41:14.977Z,8.77
2018-12-03T11:45:28.575Z,7.05
2018-12-03T11:49:42.886Z,7.40
2018-12-03T11:53:56.592Z,6.33
2018-12-03T11:58:03.534Z,7.67
2018-12-03T12:02:18.947Z,5.73
2018-12-03T12:06:33.925Z,6.45
2018-12-03T12:10:50.961Z,6.53
2018-12-03T12:14:59.959Z,7.33
2018-12-03T12:19:09.122Z,6.77
2018-12-03T12:23:25.283Z,8.45
2018-12-03T12:27:31.638Z,7.43
2018-12-03T12:31:44.745Z,8.27
2018-12-03T12:35:58.125Z,8.53
2018-12-03T12:40:15.060Z,9.30
2018-12-03T12:44:26.762Z,9.78
2018-12-03T12:48:41.319Z,10.53
2018-12-03T12:52:57.350Z,11.23
2018-12-03T12:57:08.093Z,9.60
2018-12-03T13:01:18.521Z,10.78
2018-12-03T13:05:29.204Z,11.27
2018-12-03T13:09:47.316Z,11.50
2018-12-03T13:14:00.974Z,12.17
2018-12-03T13:18:16.196Z,11.63
2018-12-03T13:22:31.403Z,10.35
2018-12-03T13:26:51.148Z,10.33
2018-12-03T13:31:02.051Z,9.97
2018-12-03T13:35:14.784Z,10.10
2018-12-03T13:39:33.751Z,10.20
2018-12-03T13:43:42.222Z,9.70
2018-12-03T13:47:57.745Z,10.13
2018-12-03T13:52:28.265Z,8.97
2018-12-03T13:56:39.107Z,9.43
2018-12-03T14:00:53.648Z,8.40
2018-12-03T14:05:06.471Z,9.97
2018-12-03T14:09:52.651Z,10.23
2018-12-03T14:14:42.410Z,10.47
2018-12-03T14:18:58.920Z,10.47
2018-12-03T14:23:11.927Z,10.30
2018-12-03T14:27:32.039Z,10.00
2018-12-03T14:31:42.928Z,9.87
2018-12-03T14:35:58.217Z,10.70
2018-12-03T14:40:05.383Z,8.87
2018-12-03T14:44:23.461Z,11.15
2018-12-03T14:48:41.220Z,9.70
2018-12-03T14:52:58.279Z,9.13
2018-12-03T14:57:09.838Z,9.03
2018-12-03T15:01:22.397Z,7.75
2018-12-03T15:05:39.811Z,8.70
2018-12-03T15:09:50.551Z,8.23
2018-12-03T15:14:03.051Z,8.07
2018-12-03T15:18:14.762Z,8.70
2018-12-03T15:22:28.580Z,9.28
2018-12-03T15:26:46.213Z,8.73
2018-12-03T15:30:58.063Z,8.13
2018-12-03T15:35:05.579Z,8.73
2018-12-03T15:39:23.032Z,9.15
2018-12-03T15:43:42.424Z,9.80
2018-12-03T15:47:55.545Z,9.13
2018-12-03T15:52:09.029Z,7.57
2018-12-03T15:56:27.908Z,8.03
2018-12-03T16:00:46.730Z,7.07
2018-12-03T16:05:04.819Z,7.10
2018-12-03T16:09:19.848Z,7.87
2018-12-03T16:13:28.333Z,6.23
2018-12-03T16:17:38.147Z,6.23
2018-12-03T16:21:50.130Z,6.90
2018-12-03T16:25:59.994Z,6.07
2018-12-03T16:30:27.943Z,5.60
2018-12-03T16:34:39.726Z,5.20
2018-12-03T16:38:55.210Z,4.70
2018-12-03T16:43:10.533Z,5.40
2018-12-03T16:47:24.067Z,5.25
2018-12-03T16:51:38.480Z,5.97
2018-12-03T16:55:52.776Z,5.63
2018-12-03T17:00:05.488Z,6.90
2018-12-03T17:04:17.292Z,6.33
2018-12-03T17:08:33.956Z,6.65
2018-12-03T17:12:41.096Z,6.70
2018-12-03T17:16:56.421Z,6.03
2018-12-03T17:21:44.332Z,5.77
2018-12-03T17:26:02.410Z,6.00
2018-12-03T17:30:16.044Z,6.43
2018-12-03T17:34:29.546Z,5.67
2018-12-03T17:38:45.734Z,6.80
2018-12-03T17:42:58.634Z,5.60
2018-12-03T17:47:12.167Z,6.13
2018-12-03T17:51:28.334Z,5.50
2018-12-03T17:55:45.690Z,5.33
2018-12-03T18:00:04.711Z,5.60
2018-12-03T18:04:19.824Z,5.43
2018-12-03T18:08:33.685Z,4.97
2018-12-03T18:12:43.850Z,6.33
2018-12-03T18:16:56.647Z,5.67
2018-12-03T18:21:06.629Z,5.47
2018-12-03T18:25:19.205Z,5.30
2018-12-03T18:29:33.899Z,6.10
2018-12-03T18:33:41.282Z,6.17
2018-12-03T18:37:52.999Z,6.03
2018-12-03T18:42:06.502Z,6.40
2018-12-03T18:46:23.689Z,5.80
2018-12-03T18:50:37.729Z,6.13
2018-12-03T18:54:48.721Z,6.80
2018-12-03T18:59:06.131Z,5.80
2018-12-03T19:03:19.784Z,7.17
2018-12-03T19:07:33.249Z,8.27
2018-12-03T19:11:43.974Z,7.10
2018-12-03T19:15:57.420Z,6.90
2018-12-03T19:20:08.169Z,8.40
2018-12-03T19:24:17.954Z,8.27
2018-12-03T19:28:31.751Z,7.70
2018-12-03T19:32:44.250Z,7.77
2018-12-03T19:37:17.940Z,7.50
2018-12-03T19:41:28.675Z,7.17
2018-12-03T19:45:47.523Z,7.90
2018-12-03T19:49:57.444Z,7.40
2018-12-03T19:54:09.385Z,8.10
2018-12-03T19:58:32.108Z,7.20
2018-12-03T20:02:46.467Z,7.07
2018-12-03T20:07:01.191Z,7.63
2018-12-03T20:11:16.721Z,5.93
2018-12-03T20:15:32.876Z,7.60
2018-12-03T20:19:43.875Z,8.57
2018-12-03T20:24:08.339Z,6.97
2018-12-03T20:28:24.825Z,6.78
2018-12-03T20:32:51.717Z,4.72
2018-12-03T20:37:24.431Z,4.83
2018-12-03T20:41:44.784Z,4.00
2018-12-03T20:46:20.333Z,3.93
2018-12-03T20:51:01.421Z,3.08
2018-12-03T20:55:34.029Z,2.10
2018-12-03T20:59:47.690Z,2.07
2018-12-03T21:04:11.490Z,2.93
2018-12-03T21:08:23.111Z,2.80
2018-12-03T21:12:33.098Z,3.70
2018-12-03T21:16:48.615Z,4.27
2018-12-03T21:21:02.978Z,3.53
2018-12-03T21:25:15.606Z,2.70
2018-12-03T21:29:24.542Z,3.60
2018-12-03T21:33:37.202Z,2.40
2018-12-03T21:37:53.571Z,1.40
2018-12-03T21:42:13.966Z,1.97
2018-12-03T21:46:26.601Z,2.02
2018-12-03T21:50:37.378Z,1.37
2018-12-03T21:54:50.007Z,1.50
2018-12-03T21:58:58.471Z,1.63
2018-12-03T22:03:05.843Z,1.77
2018-12-03T22:07:23.727Z,1.50
2018-12-03T22:11:33.596Z,1.57
2018-12-03T22:16:49.816Z,1.43
2018-12-03T22:21:04.436Z,1.63
2018-12-03T22:25:24.618Z,1.93
2018-12-03T22:29:41.514Z,2.23
2018-12-03T22:33:55.090Z,1.97
2018-12-03T22:38:05.129Z,1.60
2018-12-03T22:42:18.125Z,2.20
2018-12-03T22:46:29.742Z,1.70
2018-12-03T22:50:41.523Z,2.47
2018-12-03T22:54:53.745Z,2.23
2018-12-03T22:59:02.806Z,1.67
2018-12-03T23:03:13.441Z,1.53
2018-12-03T23:07:26.935Z,1.47
2018-12-03T23:11:42.866Z,1.50
2018-12-03T23:15:53.713Z,1.20
2018-12-03T23:20:11.536Z,1.90
2018-12-03T23:24:26.949Z,1.50
2018-12-03T23:28:35.364Z,2.30
2018-12-03T23:32:50.726Z,2.13
2018-12-03T23:37:03.236Z,1.50
2018-12-03T23:41:13.338Z,1.93
2018-12-03T23:45:27.587Z,1.60
2018-12-03T23:49:44.902Z,1.80
2018-12-03T23:53:59.757Z,1.67
2018-12-03T23:58:15.114Z,1.60
